createdAt,value
2018-11-25T00:01:49.130Z,94.10
2018-11-25T00:04:17.487Z,94.20
2018-11-25T00:06:45.536Z,94.30
2018-11-25T00:09:13.668Z,94.40
2018-11-25T00:11:41.702Z,94.20
2018-11-25T00:14:09.748Z,94.00
2018-11-25T00:16:37.984Z,94.00
2018-11-25T00:19:06.324Z,93.70
2018-11-25T00:21:34.365Z,93.70
2018-11-25T00:24:02.856Z,93.70
2018-11-25T00:26:30.962Z,93.70
2018-11-25T00:28:58.981Z,93.90
2018-11-25T00:31:27.079Z,94.10
2018-11-25T00:33:55.381Z,94.10
2018-11-25T00:36:23.464Z,94.10
2018-11-25T00:38:51.695Z,94.20
2018-11-25T00:41:19.735Z,94.30
2018-11-25T00:43:47.780Z,94.30
2018-11-25T00:46:15.847Z,94.20
2018-11-25T00:48:43.936Z,94.10
2018-11-25T00:51:11.993Z,94.20
2018-11-25T00:53:40.605Z,94.50
2018-11-25T00:56:08.669Z,94.80
2018-11-25T00:58:36.773Z,94.90
2018-11-25T01:01:05.016Z,95.00
2018-11-25T01:03:33.040Z,95.20
2018-11-25T01:06:01.325Z,95.20
2018-11-25T01:08:29.465Z,95.30
2018-11-25T01:10:57.490Z,95.60
2018-11-25T01:13:25.533Z,95.70
2018-11-25T01:15:53.622Z,95.70
2018-11-25T01:18:21.704Z,95.80
2018-11-25T01:20:49.748Z,95.90
2018-11-25T01:23:18.101Z,95.90
2018-11-25T01:25:46.176Z,95.90
2018-11-25T01:28:14.239Z,95.80
2018-11-25T01:30:42.356Z,95.70
2018-11-25T01:33:10.405Z,95.60
2018-11-25T01:35:38.469Z,95.40
2018-11-25T01:38:06.944Z,95.20
2018-11-25T01:40:34.996Z,95.20
2018-11-25T01:43:33.929Z,95.20
2018-11-25T01:46:02.095Z,95.20
2018-11-25T01:48:30.289Z,95.30
2018-11-25T01:50:58.441Z,95.10
2018-11-25T01:53:26.600Z,95.30
2018-11-25T01:55:54.865Z,95.20
2018-11-25T01:58:23.294Z,95.10
2018-11-25T02:00:51.353Z,95.10
2018-11-25T02:03:19.400Z,95.10
2018-11-25T02:05:47.564Z,95.10
2018-11-25T02:08:15.957Z,95.00
2018-11-25T02:10:44.041Z,95.00
2018-11-25T02:13:12.306Z,95.00
2018-11-25T02:15:40.368Z,95.20
2018-11-25T02:18:08.448Z,95.20
2018-11-25T02:20:36.743Z,95.20
2018-11-25T02:23:05.252Z,95.00
2018-11-25T02:25:33.305Z,94.80
2018-11-25T02:28:01.402Z,94.60
2018-11-25T02:30:29.429Z,94.40
2018-11-25T02:32:57.464Z,94.30
2018-11-25T02:35:25.797Z,94.00
2018-11-25T02:37:53.852Z,93.90
2018-11-25T02:40:21.879Z,93.60
2018-11-25T02:42:49.927Z,93.60
2018-11-25T02:45:18.672Z,93.80
2018-11-25T02:47:47.032Z,93.90
2018-11-25T02:50:21.900Z,93.60
2018-11-25T02:52:50.097Z,93.60
2018-11-25T02:55:23.319Z,94.10
2018-11-25T02:57:51.392Z,94.70
2018-11-25T03:00:19.396Z,95.10
2018-11-25T03:02:47.651Z,95.40
2018-11-25T03:05:15.709Z,95.40
2018-11-25T03:07:44.114Z,95.30
2018-11-25T03:10:12.325Z,94.90
2018-11-25T03:12:40.397Z,95.00
2018-11-25T03:15:14.245Z,94.90
2018-11-25T03:17:42.340Z,94.80
2018-11-25T03:20:12.466Z,94.70
2018-11-25T03:22:40.551Z,94.50
2018-11-25T03:25:10.249Z,94.80
2018-11-25T03:27:38.325Z,94.80
2018-11-25T03:30:09.844Z,94.80
2018-11-25T03:32:38.064Z,94.90
2018-11-25T03:35:06.785Z,94.90
2018-11-25T03:37:35.003Z,94.90
2018-11-25T03:40:04.074Z,94.90
2018-11-25T03:42:32.184Z,94.90
2018-11-25T03:45:00.270Z,95.00
2018-11-25T03:47:28.424Z,95.00
2018-11-25T03:49:56.600Z,95.10
2018-11-25T03:52:24.723Z,95.10
2018-11-25T03:54:53.275Z,94.90
2018-11-25T03:57:21.471Z,94.90
2018-11-25T03:59:49.753Z,94.80
2018-11-25T04:02:17.858Z,94.70
2018-11-25T04:04:45.895Z,94.50
2018-11-25T04:07:13.939Z,94.20
2018-11-25T04:09:41.979Z,93.90
2018-11-25T04:12:10.239Z,93.80
2018-11-25T04:17:12.015Z,94.60
2018-11-25T04:19:40.184Z,94.70
2018-11-25T04:22:08.333Z,94.90
2018-11-25T04:24:36.398Z,94.90
2018-11-25T04:27:04.508Z,95.00
2018-11-25T04:29:32.547Z,94.80
2018-11-25T04:32:00.616Z,94.90
2018-11-25T04:34:29.026Z,95.00
2018-11-25T04:36:57.094Z,95.00
2018-11-25T04:39:25.160Z,95.10
2018-11-25T04:41:53.209Z,95.10
2018-11-25T04:44:21.327Z,95.00
2018-11-25T04:46:49.435Z,94.80
2018-11-25T04:49:17.499Z,94.70
2018-11-25T04:51:45.798Z,94.90
2018-11-25T04:54:13.839Z,94.80
2018-11-25T04:56:41.927Z,94.80
2018-11-25T04:59:10.001Z,94.80
2018-11-25T05:01:38.061Z,94.70
2018-11-25T05:04:06.511Z,94.60
2018-11-25T05:06:34.576Z,94.60
2018-11-25T05:09:02.649Z,94.60
2018-11-25T05:11:30.705Z,95.10
2018-11-25T05:13:59.158Z,94.70
2018-11-25T05:16:27.200Z,94.50
2018-11-25T05:18:55.384Z,94.20
2018-11-25T05:21:29.953Z,93.80
2018-11-25T05:23:58.079Z,93.80
2018-11-25T05:26:26.119Z,94.00
2018-11-25T05:28:54.152Z,94.30
2018-11-25T05:31:22.808Z,94.40
2018-11-25T05:33:50.904Z,94.90
2018-11-25T05:36:18.940Z,94.60
2018-11-25T05:38:47.380Z,94.60
2018-11-25T05:41:15.444Z,94.70
2018-11-25T05:43:43.476Z,94.80
2018-11-25T05:46:11.570Z,94.90
2018-11-25T05:48:39.634Z,94.90
2018-11-25T05:51:08.629Z,94.90
2018-11-25T05:53:36.744Z,95.00
2018-11-25T05:56:04.884Z,94.90
2018-11-25T05:58:32.921Z,95.00
2018-11-25T06:01:00.995Z,95.00
2018-11-25T06:03:29.028Z,94.90
2018-11-25T06:05:57.099Z,94.70
2018-11-25T06:08:25.395Z,94.60
2018-11-25T06:10:53.705Z,94.50
2018-11-25T06:13:21.780Z,94.20
2018-11-25T06:15:50.409Z,93.90
2018-11-25T06:18:18.530Z,94.00
2018-11-25T06:20:46.553Z,93.90
2018-11-25T06:23:14.712Z,93.80
2018-11-25T06:25:42.756Z,93.70
2018-11-25T06:28:10.828Z,93.70
2018-11-25T06:30:38.897Z,93.90
2018-11-25T06:33:06.933Z,94.70
2018-11-25T06:35:35.020Z,94.70
2018-11-25T06:38:03.229Z,94.90
2018-11-25T06:40:31.280Z,94.90
2018-11-25T06:42:59.349Z,94.90
2018-11-25T06:45:28.750Z,94.90
2018-11-25T06:47:57.596Z,94.90
2018-11-25T06:50:25.664Z,95.10
2018-11-25T06:52:53.740Z,95.10
2018-11-25T06:55:21.804Z,95.10
2018-11-25T06:57:49.874Z,95.00
2018-11-25T07:00:20.951Z,95.00
2018-11-25T07:02:49.021Z,94.90
2018-11-25T07:05:17.169Z,94.80
2018-11-25T07:07:45.253Z,94.90
2018-11-25T07:10:19.171Z,94.90
2018-11-25T07:12:48.352Z,95.40
2018-11-25T07:15:17.425Z,95.10
2018-11-25T07:17:45.800Z,95.10
2018-11-25T07:20:15.101Z,95.10
2018-11-25T07:22:43.743Z,95.20
2018-11-25T07:25:13.969Z,95.30
2018-11-25T07:27:42.040Z,95.20
2018-11-25T07:30:13.433Z,95.10
2018-11-25T07:32:41.508Z,95.00
2018-11-25T07:35:09.550Z,95.10
2018-11-25T07:37:37.726Z,94.90
2018-11-25T07:40:09.596Z,94.70
2018-11-25T07:42:37.644Z,94.50
2018-11-25T07:45:08.666Z,94.20
2018-11-25T07:47:36.702Z,94.40
2018-11-25T07:50:06.334Z,93.90
2018-11-25T07:52:34.375Z,93.60
2018-11-25T07:55:02.421Z,93.60
2018-11-25T07:57:30.545Z,93.80
2018-11-25T07:59:58.648Z,93.70
2018-11-25T08:02:27.817Z,93.70
2018-11-25T08:04:54.931Z,93.70
2018-11-25T08:07:23.185Z,93.60
2018-11-25T08:09:51.248Z,93.70
2018-11-25T08:12:19.325Z,93.80
2018-11-25T08:14:47.436Z,93.80
2018-11-25T08:17:15.629Z,93.60
2018-11-25T08:19:43.849Z,93.60
2018-11-25T08:22:11.951Z,93.40
2018-11-25T08:24:40.076Z,93.10
2018-11-25T08:27:08.224Z,93.10
2018-11-25T08:29:36.302Z,93.00
2018-11-25T08:32:04.327Z,93.00
2018-11-25T08:34:32.400Z,93.10
2018-11-25T08:37:00.569Z,93.30
2018-11-25T08:39:28.627Z,93.60
2018-11-25T08:41:56.750Z,93.90
2018-11-25T08:44:24.965Z,94.00
2018-11-25T08:46:53.221Z,94.30
2018-11-25T08:49:21.320Z,94.00
2018-11-25T08:51:49.643Z,94.10
2018-11-25T08:54:17.729Z,93.40
2018-11-25T08:56:45.892Z,93.20
2018-11-25T08:59:14.088Z,93.30
2018-11-25T09:01:42.187Z,93.30
2018-11-25T09:04:10.384Z,93.10
2018-11-25T09:06:38.723Z,93.20
2018-11-25T09:09:08.244Z,93.20
2018-11-25T09:11:36.448Z,93.40
2018-11-25T09:14:04.552Z,92.90
2018-11-25T09:16:32.711Z,92.80
2018-11-25T09:19:01.857Z,93.00
2018-11-25T09:21:31.089Z,92.90
2018-11-25T09:23:59.897Z,93.10
2018-11-25T09:26:28.693Z,93.10
2018-11-25T09:28:56.878Z,93.00
2018-11-25T09:31:25.690Z,92.90
2018-11-25T09:33:54.615Z,92.90
2018-11-25T09:36:23.413Z,92.70
2018-11-25T09:38:52.705Z,92.80
2018-11-25T09:41:21.370Z,92.60
2018-11-25T09:43:49.939Z,92.30
2018-11-25T09:46:18.363Z,92.40
2018-11-25T09:48:47.399Z,92.20
2018-11-25T09:51:15.578Z,92.10
2018-11-25T09:53:43.910Z,92.30
2018-11-25T09:56:12.232Z,92.20
2018-11-25T09:58:40.752Z,91.80
2018-11-25T10:01:08.840Z,91.70
2018-11-25T10:03:37.094Z,92.10
2018-11-25T10:06:06.134Z,91.80
2018-11-25T10:08:34.267Z,91.70
2018-11-25T10:11:02.641Z,91.60
2018-11-25T10:13:30.996Z,91.70
2018-11-25T10:15:59.047Z,91.60
2018-11-25T10:18:27.423Z,91.60
2018-11-25T10:20:55.511Z,91.90
2018-11-25T10:23:24.821Z,92.30
2018-11-25T10:25:52.910Z,92.40
2018-11-25T10:28:20.996Z,92.40
2018-11-25T10:30:49.242Z,92.20
2018-11-25T10:33:17.322Z,92.20
2018-11-25T10:35:45.394Z,92.10
2018-11-25T10:38:13.538Z,92.10
2018-11-25T10:40:41.568Z,92.20
2018-11-25T10:43:09.670Z,92.10
2018-11-25T10:45:38.294Z,92.30
2018-11-25T10:48:06.357Z,92.60
2018-11-25T10:50:34.536Z,91.90
2018-11-25T10:53:02.893Z,91.60
2018-11-25T10:58:05.584Z,91.50
2018-11-25T11:00:40.234Z,91.20
2018-11-25T11:03:14.829Z,90.80
2018-11-25T11:05:48.431Z,91.30
2018-11-25T11:08:16.604Z,91.40
2018-11-25T11:10:45.811Z,91.40
2018-11-25T11:13:14.015Z,91.50
2018-11-25T11:15:42.096Z,91.40
2018-11-25T11:18:10.233Z,91.20
2018-11-25T11:20:38.502Z,91.10
2018-11-25T11:23:06.828Z,90.90
2018-11-25T11:25:35.290Z,91.10
2018-11-25T11:28:03.405Z,91.10
2018-11-25T11:30:32.827Z,91.00
2018-11-25T11:33:00.923Z,91.30
2018-11-25T11:35:29.228Z,91.70
2018-11-25T11:37:57.309Z,92.00
2018-11-25T11:40:25.549Z,92.20
2018-11-25T11:42:54.523Z,92.40
2018-11-25T11:45:22.954Z,92.50
2018-11-25T11:47:51.061Z,92.70
2018-11-25T11:50:21.247Z,92.90
2018-11-25T11:52:49.360Z,92.80
2018-11-25T11:55:17.972Z,92.80
2018-11-25T11:57:46.954Z,93.00
2018-11-25T12:00:25.110Z,93.00
2018-11-25T12:02:53.168Z,93.10
2018-11-25T12:05:21.173Z,93.50
2018-11-25T12:07:49.262Z,93.50
2018-11-25T12:10:17.800Z,93.40
2018-11-25T12:12:45.861Z,93.30
2018-11-25T12:15:15.391Z,93.40
2018-11-25T12:17:43.506Z,93.40
2018-11-25T12:20:11.871Z,93.50
2018-11-25T12:22:40.160Z,93.50
2018-11-25T12:25:10.368Z,93.50
2018-11-25T12:27:38.756Z,93.60
2018-11-25T12:30:09.314Z,93.40
2018-11-25T12:32:37.483Z,93.40
2018-11-25T12:35:06.638Z,93.50
2018-11-25T12:37:36.039Z,93.50
2018-11-25T12:40:03.512Z,93.50
2018-11-25T12:42:31.858Z,93.70
2018-11-25T12:45:00.913Z,93.80
2018-11-25T12:47:29.561Z,93.60
2018-11-25T12:49:58.222Z,93.60
2018-11-25T12:52:26.729Z,93.70
2018-11-25T12:54:54.966Z,93.70
2018-11-25T13:02:53.691Z,93.70
2018-11-25T13:05:22.000Z,93.80
2018-11-25T13:07:50.477Z,93.50
2018-11-25T13:10:19.722Z,93.70
2018-11-25T13:12:47.800Z,93.70
2018-11-25T13:15:15.868Z,93.80
2018-11-25T13:17:44.119Z,93.80
2018-11-25T13:20:14.129Z,93.90
2018-11-25T13:22:42.220Z,94.00
2018-11-25T13:25:11.637Z,93.80
2018-11-25T13:27:39.872Z,93.60
2018-11-25T13:30:15.087Z,93.70
2018-11-25T13:32:43.401Z,93.80
2018-11-25T13:35:11.585Z,94.00
2018-11-25T13:37:39.663Z,94.10
2018-11-25T13:40:09.697Z,94.20
2018-11-25T13:42:37.777Z,94.30
2018-11-25T13:45:07.013Z,94.40
2018-11-25T13:47:35.064Z,94.50
2018-11-25T13:50:03.179Z,94.40
2018-11-25T13:52:31.711Z,94.40
2018-11-25T13:54:59.778Z,94.40
2018-11-25T13:57:27.792Z,94.50
2018-11-25T13:59:55.969Z,94.60
2018-11-25T14:02:24.048Z,94.60
2018-11-25T14:04:52.150Z,94.50
2018-11-25T14:07:26.941Z,94.60
2018-11-25T14:09:55.631Z,94.60
2018-11-25T14:12:23.210Z,94.50
2018-11-25T14:14:51.566Z,94.30
2018-11-25T14:17:19.608Z,94.40
2018-11-25T14:19:47.687Z,94.40
2018-11-25T14:22:15.977Z,94.40
2018-11-25T14:24:44.015Z,94.40
2018-11-25T14:27:12.154Z,94.30
2018-11-25T14:29:40.649Z,94.30
2018-11-25T14:32:08.764Z,94.20
2018-11-25T14:34:36.840Z,94.20
2018-11-25T14:37:05.086Z,94.10
2018-11-25T14:39:33.258Z,94.20
2018-11-25T14:42:01.312Z,94.30
2018-11-25T14:44:29.353Z,94.20
2018-11-25T14:46:57.403Z,94.10
2018-11-25T14:49:25.470Z,94.00
2018-11-25T14:51:53.861Z,94.00
2018-11-25T14:54:21.916Z,94.00
2018-11-25T14:56:49.980Z,94.20
2018-11-25T14:59:18.182Z,94.30
2018-11-25T15:01:46.279Z,94.20
2018-11-25T15:04:14.307Z,94.40
2018-11-25T15:06:42.504Z,94.30
2018-11-25T15:09:11.357Z,94.30
2018-11-25T15:11:39.432Z,94.30
2018-11-25T15:14:08.149Z,94.40
2018-11-25T15:16:36.510Z,94.40
2018-11-25T15:19:05.065Z,94.30
2018-11-25T15:21:33.149Z,94.50
2018-11-25T15:24:01.218Z,94.50
2018-11-25T15:26:29.262Z,94.50
2018-11-25T15:28:57.342Z,94.50
2018-11-25T15:31:25.542Z,94.60
2018-11-25T15:33:53.616Z,94.60
2018-11-25T15:36:21.717Z,94.60
2018-11-25T15:38:49.864Z,94.50
2018-11-25T15:41:17.928Z,94.50
2018-11-25T15:43:46.026Z,94.50
2018-11-25T15:46:14.066Z,94.50
2018-11-25T15:48:42.146Z,94.80
2018-11-25T15:51:10.344Z,94.90
2018-11-25T15:53:38.385Z,94.70
2018-11-25T15:56:09.899Z,94.70
2018-11-25T15:58:37.975Z,94.80
2018-11-25T16:01:06.221Z,94.70
2018-11-25T16:03:34.291Z,94.70
2018-11-25T16:06:08.582Z,94.70
2018-11-25T16:08:38.389Z,94.80
2018-11-25T16:11:05.697Z,94.90
2018-11-25T16:13:33.758Z,94.90
2018-11-25T16:16:01.857Z,94.90
2018-11-25T16:18:29.923Z,94.80
2018-11-25T16:20:58.030Z,94.70
2018-11-25T16:23:26.247Z,94.80
2018-11-25T16:25:55.937Z,94.90
2018-11-25T16:28:31.126Z,95.00
2018-11-25T16:30:59.168Z,95.00
2018-11-25T16:33:27.537Z,94.90
2018-11-25T16:35:55.908Z,94.80
2018-11-25T16:38:23.947Z,94.90
2018-11-25T16:40:51.966Z,94.90
2018-11-25T16:43:20.139Z,94.90
2018-11-25T16:45:48.199Z,94.80
2018-11-25T16:48:16.329Z,94.70
2018-11-25T16:50:44.393Z,94.60
2018-11-25T16:53:12.431Z,94.70
2018-11-25T16:55:40.474Z,94.90
2018-11-25T16:58:08.860Z,95.00
2018-11-25T17:00:36.944Z,94.90
2018-11-25T17:03:05.161Z,94.90
2018-11-25T17:05:35.124Z,94.90
2018-11-25T17:08:11.818Z,94.80
2018-11-25T17:10:40.015Z,94.70
2018-11-25T17:13:08.153Z,94.80
2018-11-25T17:15:36.214Z,94.60
2018-11-25T17:18:04.401Z,94.70
2018-11-25T17:20:32.424Z,94.90
2018-11-25T17:23:00.481Z,95.00
2018-11-25T17:25:28.571Z,95.20
2018-11-25T17:27:56.604Z,95.30
2018-11-25T17:30:24.652Z,95.30
2018-11-25T17:32:52.829Z,95.30
2018-11-25T17:35:25.915Z,95.30
2018-11-25T17:37:54.023Z,95.30
2018-11-25T17:40:22.077Z,95.30
2018-11-25T17:42:50.341Z,95.20
2018-11-25T17:45:18.479Z,95.30
2018-11-25T17:47:46.543Z,95.40
2018-11-25T17:50:22.169Z,95.60
2018-11-25T17:52:50.327Z,95.80
2018-11-25T17:55:19.241Z,96.10
2018-11-25T17:57:47.323Z,96.20
2018-11-25T18:00:29.211Z,96.30
2018-11-25T18:02:57.712Z,96.50
2018-11-25T18:05:25.768Z,96.50
2018-11-25T18:07:53.881Z,96.30
2018-11-25T18:10:22.155Z,96.40
2018-11-25T18:12:50.210Z,96.40
2018-11-25T18:15:19.534Z,96.40
2018-11-25T18:17:50.850Z,96.70
2018-11-25T18:20:18.959Z,96.40
2018-11-25T18:22:48.104Z,96.20
2018-11-25T18:25:16.334Z,96.60
2018-11-25T18:27:44.417Z,96.20
2018-11-25T18:30:14.646Z,96.30
2018-11-25T18:32:43.407Z,96.20
2018-11-25T18:35:11.492Z,96.30
2018-11-25T18:37:39.910Z,96.40
2018-11-25T18:40:10.677Z,96.40
2018-11-25T18:42:38.952Z,96.40
2018-11-25T18:45:09.709Z,96.30
2018-11-25T18:47:37.792Z,96.20
2018-11-25T18:50:11.150Z,96.20
2018-11-25T18:52:39.446Z,96.20
2018-11-25T18:55:06.661Z,96.20
2018-11-25T18:57:34.705Z,96.70
2018-11-25T19:00:03.525Z,96.40
2018-11-25T19:02:42.366Z,96.20
2018-11-25T19:05:10.532Z,96.20
2018-11-25T19:07:38.623Z,96.30
2018-11-25T19:10:13.812Z,96.30
2018-11-25T19:12:44.273Z,96.30
2018-11-25T19:15:11.230Z,96.20
2018-11-25T19:17:39.269Z,96.10
2018-11-25T19:20:13.815Z,96.10
2018-11-25T19:22:42.273Z,96.10
2018-11-25T19:25:11.772Z,96.10
2018-11-25T19:27:39.991Z,96.20
2018-11-25T19:30:13.065Z,96.20
2018-11-25T19:32:41.570Z,96.10
2018-11-25T19:35:11.946Z,96.00
2018-11-25T19:37:40.492Z,96.00
2018-11-25T19:40:14.906Z,96.00
2018-11-25T19:42:43.385Z,95.90
2018-11-25T19:45:14.915Z,95.90
2018-11-25T19:47:43.079Z,95.60
2018-11-25T19:50:14.529Z,95.60
2018-11-25T19:52:42.803Z,95.70
2018-11-25T19:55:11.198Z,95.60
2018-11-25T19:57:39.673Z,95.70
2018-11-25T20:00:10.927Z,95.70
2018-11-25T20:02:38.994Z,95.80
2018-11-25T20:05:08.148Z,95.90
2018-11-25T20:07:36.272Z,95.80
2018-11-25T20:10:04.710Z,95.70
2018-11-25T20:12:38.512Z,95.40
2018-11-25T20:15:07.008Z,95.50
2018-11-25T20:17:35.084Z,95.40
2018-11-25T20:20:03.562Z,95.50
2018-11-25T20:22:31.637Z,95.40
2018-11-25T20:24:59.834Z,95.40
2018-11-25T20:27:33.785Z,95.40
2018-11-25T20:30:02.281Z,95.40
2018-11-25T20:32:35.682Z,95.40
2018-11-25T20:35:03.807Z,95.40
2018-11-25T20:37:31.885Z,95.40
2018-11-25T20:40:00.284Z,95.20
2018-11-25T20:42:28.422Z,95.20
2018-11-25T20:44:56.972Z,95.20
2018-11-25T20:47:25.076Z,95.20
2018-11-25T20:49:53.163Z,95.10
2018-11-25T20:52:26.706Z,95.10
2018-11-25T20:54:54.777Z,95.30
2018-11-25T20:57:22.840Z,95.10
2018-11-25T20:59:51.328Z,95.00
2018-11-25T21:02:20.359Z,94.80
2018-11-25T21:04:47.525Z,94.70
2018-11-25T21:07:15.641Z,94.70
2018-11-25T21:09:43.688Z,94.60
2018-11-25T21:12:11.711Z,94.50
2018-11-25T21:14:39.946Z,94.50
2018-11-25T21:17:08.046Z,94.50
2018-11-25T21:20:08.439Z,94.50
2018-11-25T21:22:36.531Z,94.30
2018-11-25T21:25:07.174Z,94.30
2018-11-25T21:27:35.360Z,94.60
2018-11-25T21:30:04.424Z,94.60
2018-11-25T21:32:32.488Z,94.60
2018-11-25T21:35:00.567Z,94.60
2018-11-25T21:37:28.603Z,94.50
2018-11-25T21:39:56.772Z,94.50
2018-11-25T21:42:25.003Z,94.50
2018-11-25T21:44:53.065Z,94.60
2018-11-25T21:47:21.526Z,94.60
2018-11-25T21:49:49.859Z,94.60
2018-11-25T21:52:17.889Z,94.50
2018-11-25T21:54:46.017Z,94.60
2018-11-25T21:57:14.069Z,94.40
2018-11-25T21:59:42.149Z,94.40
2018-11-25T22:02:10.435Z,94.20
2018-11-25T22:04:38.577Z,94.20
2018-11-25T22:07:06.647Z,94.20
2018-11-25T22:09:34.697Z,94.20
2018-11-25T22:12:02.806Z,94.10
2018-11-25T22:14:30.876Z,94.10
2018-11-25T22:16:59.333Z,94.00
2018-11-25T22:19:27.421Z,93.90
2018-11-25T22:21:55.484Z,93.80
2018-11-25T22:24:23.548Z,93.70
2018-11-25T22:26:51.604Z,93.50
2018-11-25T22:29:19.679Z,93.50
2018-11-25T22:31:47.742Z,93.50
2018-11-25T22:34:16.381Z,93.50
2018-11-25T22:36:44.447Z,93.50
2018-11-25T22:39:12.504Z,93.30
2018-11-25T22:41:40.542Z,93.40
2018-11-25T22:44:08.796Z,93.30
2018-11-25T22:46:36.864Z,93.50
2018-11-25T22:49:05.801Z,93.60
2018-11-25T22:51:33.850Z,93.10
2018-11-25T22:54:02.023Z,93.20
2018-11-25T22:56:30.109Z,93.10
2018-11-25T22:58:58.168Z,92.90
2018-11-25T23:01:26.628Z,92.80
2018-11-25T23:04:06.206Z,92.80
2018-11-25T23:06:45.778Z,92.90
2018-11-25T23:09:13.901Z,93.00
2018-11-25T23:11:42.468Z,93.00
2018-11-25T23:14:10.734Z,92.90
2018-11-25T23:16:38.793Z,92.90
2018-11-25T23:19:06.881Z,93.10
2018-11-25T23:21:34.927Z,92.30
2018-11-25T23:24:03.652Z,92.30
2018-11-25T23:26:31.725Z,92.40
2018-11-25T23:28:59.794Z,92.60
2018-11-25T23:31:27.836Z,92.60
2018-11-25T23:33:55.899Z,92.80
2018-11-25T23:36:23.993Z,93.00
2018-11-25T23:38:52.092Z,93.50
2018-11-25T23:41:20.213Z,93.50
2018-11-25T23:43:48.303Z,93.70
2018-11-25T23:46:17.921Z,93.60
2018-11-25T23:48:46.019Z,93.30
2018-11-25T23:51:14.086Z,93.20
2018-11-25T23:53:49.204Z,93.20
2018-11-25T23:56:17.277Z,93.00
2018-11-25T23:58:45.353Z,92.90
